sensor_id;sensor_type;location;lat;lon;timestamp;pressure;altitude;pressure_sealevel;temperature;humidity
9905;BME280;4991;43.566;27.820;2023-04-28T00:01:09;98988.19;;;6.74;100.00
9905;BME280;4991;43.566;27.820;2023-04-28T00:03:34;98997.41;;;6.57;100.00
9905;BME280;4991;43.566;27.820;2023-04-28T00:06:02;98994.72;;;6.52;100.00
9905;BME280;4991;43.566;27.820;2023-04-28T00:08:27;98986.34;;;6.44;100.00
9905;BME280;4991;43.566;27.820;2023-04-28T00:10:53;98975.25;;;6.40;100.00
9905;BME280;4991;43.566;27.820;2023-04-28T00:13:18;98985.00;;;6.41;100.00
9905;BME280;4991;43.566;27.820;2023-04-28T00:15:44;98979.88;;;6.35;100.00
9905;BME280;4991;43.566;27.820;2023-04-28T00:18:10;98981.22;;;6.32;100.00
9905;BME280;4991;43.566;27.820;2023-04-28T00:20:35;98985.53;;;6.28;100.00
9905;BME280;4991;43.566;27.820;2023-04-28T00:23:01;98991.75;;;6.24;100.00
9905;BME280;4991;43.566;27.820;2023-04-28T00:25:27;98985.00;;;6.16;100.00
9905;BME280;4991;43.566;27.820;2023-04-28T00:27:52;98991.75;;;6.14;100.00
9905;BME280;4991;43.566;27.820;2023-04-28T00:30:18;98985.56;;;6.13;100.00
9905;BME280;4991;43.566;27.820;2023-04-28T00:32:43;98990.41;;;6.11;100.00
9905;BME280;4991;43.566;27.820;2023-04-28T00:35:09;98994.19;;;6.10;100.00
9905;BME280;4991;43.566;27.820;2023-04-28T00:37:36;98982.31;;;6.11;100.00
9905;BME280;4991;43.566;27.820;2023-04-28T00:40:02;98985.81;;;6.07;100.00
9905;BME280;4991;43.566;27.820;2023-04-28T00:42:27;98994.19;;;6.05;100.00
9905;BME280;4991;43.566;27.820;2023-04-28T00:44:53;98997.41;;;5.97;100.00
9905;BME280;4991;43.566;27.820;2023-04-28T00:47:18;98986.06;;;6.00;100.00
9905;BME280;4991;43.566;27.820;2023-04-28T00:49:44;98986.09;;;5.85;100.00
9905;BME280;4991;43.566;27.820;2023-04-28T00:52:10;98990.63;;;5.75;100.00
9905;BME280;4991;43.566;27.820;2023-04-28T00:54:36;98992.22;;;5.71;100.00
9905;BME280;4991;43.566;27.820;2023-04-28T00:57:02;98992.22;;;5.66;100.00
9905;BME280;4991;43.566;27.820;2023-04-28T00:59:29;98992.44;;;5.54;100.00
9905;BME280;4991;43.566;27.820;2023-04-28T01:01:55;98990.84;;;5.58;100.00
9905;BME280;4991;43.566;27.820;2023-04-28T01:04:22;98991.69;;;5.59;100.00
9905;BME280;4991;43.566;27.820;2023-04-28T01:06:52;98997.63;;;5.66;100.00
9905;BME280;4991;43.566;27.820;2023-04-28T01:09:18;98991.13;;;5.62;100.00
9905;BME280;4991;43.566;27.820;2023-04-28T01:11:43;98993.03;;;5.66;100.00
9905;BME280;4991;43.566;27.820;2023-04-28T01:14:09;98991.41;;;5.65;100.00
9905;BME280;4991;43.566;27.820;2023-04-28T01:16:37;98986.28;;;5.64;100.00
9905;BME280;4991;43.566;27.820;2023-04-28T01:19:07;98983.84;;;5.67;100.00
9905;BME280;4991;43.566;27.820;2023-04-28T01:21:37;98990.06;;;5.68;100.00
9905;BME280;4991;43.566;27.820;2023-04-28T01:24:05;98975.47;;;5.64;100.00
9905;BME280;4991;43.566;27.820;2023-04-28T01:26:31;98982.47;;;5.60;100.00
9905;BME280;4991;43.566;27.820;2023-04-28T01:28:56;98979.22;;;5.58;100.00
9905;BME280;4991;43.566;27.820;2023-04-28T01:31:22;98983.03;;;5.57;100.00
9905;BME280;4991;43.566;27.820;2023-04-28T01:33:47;98976.22;;;5.49;100.00
9905;BME280;4991;43.566;27.820;2023-04-28T01:36:13;98975.69;;;5.42;100.00
9905;BME280;4991;43.566;27.820;2023-04-28T01:38:39;98978.66;;;5.46;100.00
9905;BME280;4991;43.566;27.820;2023-04-28T01:41:04;98981.63;;;5.44;100.00
9905;BME280;4991;43.566;27.820;2023-04-28T01:43:30;98978.41;;;5.42;100.00
9905;BME280;4991;43.566;27.820;2023-04-28T01:45:55;98974.03;;;5.36;100.00
9905;BME280;4991;43.566;27.820;2023-04-28T01:48:21;98974.03;;;5.31;100.00
9905;BME280;4991;43.566;27.820;2023-04-28T01:50:47;98970.75;;;5.24;100.00
9905;BME280;4991;43.566;27.820;2023-04-28T01:53:13;98977.50;;;5.21;100.00
9905;BME280;4991;43.566;27.820;2023-04-28T01:55:39;98979.66;;;5.19;100.00
9905;BME280;4991;43.566;27.820;2023-04-28T01:58:04;98971.28;;;5.21;100.00
9905;BME280;4991;43.566;27.820;2023-04-28T02:00:30;98975.06;;;5.20;100.00
9905;BME280;4991;43.566;27.820;2023-04-28T02:02:56;98972.34;;;5.15;100.00
9905;BME280;4991;43.566;27.820;2023-04-28T02:05:21;98979.09;;;5.17;100.00
9905;BME280;4991;43.566;27.820;2023-04-28T02:07:47;98979.09;;;5.17;100.00
9905;BME280;4991;43.566;27.820;2023-04-28T02:10:12;98978.03;;;5.13;100.00
9905;BME280;4991;43.566;27.820;2023-04-28T02:12:38;98976.13;;;5.09;100.00
9905;BME280;4991;43.566;27.820;2023-04-28T02:15:06;98975.56;;;5.07;100.00
9905;BME280;4991;43.566;27.820;2023-04-28T02:17:32;98971.75;;;4.98;100.00
9905;BME280;4991;43.566;27.820;2023-04-28T02:19:57;98969.31;;;4.96;100.00
9905;BME280;4991;43.566;27.820;2023-04-28T02:22:23;98973.06;;;4.90;100.00
9905;BME280;4991;43.566;27.820;2023-04-28T02:24:49;98965.72;;;4.86;100.00
9905;BME280;4991;43.566;27.820;2023-04-28T02:27:16;98971.66;;;4.83;100.00
9905;BME280;4991;43.566;27.820;2023-04-28T02:29:42;98972.47;;;4.78;100.00
9905;BME280;4991;43.566;27.820;2023-04-28T02:32:08;98981.34;;;4.74;100.00
9905;BME280;4991;43.566;27.820;2023-04-28T02:34:33;98988.63;;;4.73;100.00
9905;BME280;4991;43.566;27.820;2023-04-28T02:36:59;98978.09;;;4.72;100.00
9905;BME280;4991;43.566;27.820;2023-04-28T02:39:25;98970.78;;;4.67;100.00
9905;BME280;4991;43.566;27.820;2023-04-28T02:41:54;98976.69;;;4.64;100.00
9905;BME280;4991;43.566;27.820;2023-04-28T02:44:20;98978.56;;;4.59;100.00
9905;BME280;4991;43.566;27.820;2023-04-28T02:46:46;98982.31;;;4.58;100.00
9905;BME280;4991;43.566;27.820;2023-04-28T02:49:12;98990.97;;;4.60;100.00
9905;BME280;4991;43.566;27.820;2023-04-28T02:51:38;98991.22;;;4.58;100.00
9905;BME280;4991;43.566;27.820;2023-04-28T02:54:04;98990.66;;;4.56;100.00
9905;BME280;4991;43.566;27.820;2023-04-28T02:56:29;98989.28;;;4.49;100.00
9905;BME280;4991;43.566;27.820;2023-04-28T02:58:55;98983.31;;;4.47;100.00
9905;BME280;4991;43.566;27.820;2023-04-28T03:01:21;98993.00;;;4.43;100.00
9905;BME280;4991;43.566;27.820;2023-04-28T03:03:47;98987.38;;;4.44;100.00
9905;BME280;4991;43.566;27.820;2023-04-28T03:06:13;98985.72;;;4.43;100.00
9905;BME280;4991;43.566;27.820;2023-04-28T03:08:38;98989.47;;;4.37;100.00
9905;BME280;4991;43.566;27.820;2023-04-28T03:11:04;98990.78;;;4.35;100.00
9905;BME280;4991;43.566;27.820;2023-04-28T03:13:30;98998.38;;;4.38;100.00
9905;BME280;4991;43.566;27.820;2023-04-28T03:15:55;98999.16;;;4.38;100.00
9905;BME280;4991;43.566;27.820;2023-04-28T03:18:21;98994.59;;;4.39;100.00
9905;BME280;4991;43.566;27.820;2023-04-28T03:20:48;99008.59;;;4.36;100.00
9905;BME280;4991;43.566;27.820;2023-04-28T03:23:14;99010.69;;;4.29;100.00
9905;BME280;4991;43.566;27.820;2023-04-28T03:25:40;99023.06;;;4.25;100.00
9905;BME280;4991;43.566;27.820;2023-04-28T03:28:06;99021.44;;;4.24;100.00
9905;BME280;4991;43.566;27.820;2023-04-28T03:30:31;99023.56;;;4.22;100.00
9905;BME280;4991;43.566;27.820;2023-04-28T03:32:57;99021.19;;;4.25;100.00
9905;BME280;4991;43.566;27.820;2023-04-28T03:35:22;99026.56;;;4.25;100.00
9905;BME280;4991;43.566;27.820;2023-04-28T03:37:48;99026.25;;;4.22;100.00
9905;BME280;4991;43.566;27.820;2023-04-28T03:40:14;99037.91;;;4.27;100.00
9905;BME280;4991;43.566;27.820;2023-04-28T03:42:40;99036.53;;;4.25;100.00
9905;BME280;4991;43.566;27.820;2023-04-28T03:45:06;99042.44;;;4.22;100.00
9905;BME280;4991;43.566;27.820;2023-04-28T03:47:32;99048.94;;;4.26;100.00
9905;BME280;4991;43.566;27.820;2023-04-28T03:49:58;99054.34;;;4.26;100.00
9905;BME280;4991;43.566;27.820;2023-04-28T03:52:24;99055.78;;;4.38;100.00
9905;BME280;4991;43.566;27.820;2023-04-28T03:54:50;99060.88;;;4.35;100.00
9905;BME280;4991;43.566;27.820;2023-04-28T03:57:16;99061.22;;;4.43;100.00
9905;BME280;4991;43.566;27.820;2023-04-28T03:59:42;99053.16;;;4.48;100.00
9905;BME280;4991;43.566;27.820;2023-04-28T04:02:07;99056.16;;;4.52;100.00
9905;BME280;4991;43.566;27.820;2023-04-28T04:04:33;99068.13;;;4.61;100.00
9905;BME280;4991;43.566;27.820;2023-04-28T04:06:59;99061.97;;;4.70;100.00
9905;BME280;4991;43.566;27.820;2023-04-28T04:09:25;99067.41;;;4.75;100.00
9905;BME280;4991;43.566;27.820;2023-04-28T04:11:50;99071.78;;;4.86;100.00
9905;BME280;4991;43.566;27.820;2023-04-28T04:14:16;99079.63;;;4.88;100.00
9905;BME280;4991;43.566;27.820;2023-04-28T04:16:42;99074.88;;;5.05;100.00
9905;BME280;4991;43.566;27.820;2023-04-28T04:19:07;99070.88;;;5.17;100.00
9905;BME280;4991;43.566;27.820;2023-04-28T04:21:33;99082.00;;;5.26;100.00
9905;BME280;4991;43.566;27.820;2023-04-28T04:23:59;99074.50;;;5.38;100.00
9905;BME280;4991;43.566;27.820;2023-04-28T04:26:26;99079.41;;;5.46;100.00
9905;BME280;4991;43.566;27.820;2023-04-28T04:28:52;99078.56;;;5.46;100.00
9905;BME280;4991;43.566;27.820;2023-04-28T04:31:20;99077.84;;;5.60;100.00
9905;BME280;4991;43.566;27.820;2023-04-28T04:33:47;99076.75;;;5.61;100.00
9905;BME280;4991;43.566;27.820;2023-04-28T04:36:13;99078.13;;;5.74;100.00
9905;BME280;4991;43.566;27.820;2023-04-28T04:38:39;99078.72;;;5.81;100.00
9905;BME280;4991;43.566;27.820;2023-04-28T04:41:05;99075.25;;;5.85;100.00
9905;BME280;4991;43.566;27.820;2023-04-28T04:43:31;99087.69;;;5.91;100.00
9905;BME280;4991;43.566;27.820;2023-04-28T04:45:56;99080.94;;;5.99;100.00
9905;BME280;4991;43.566;27.820;2023-04-28T04:48:22;99075.03;;;6.12;100.00
9905;BME280;4991;43.566;27.820;2023-04-28T04:50:48;99076.69;;;6.18;100.00
9905;BME280;4991;43.566;27.820;2023-04-28T04:53:13;99077.50;;;6.18;100.00
9905;BME280;4991;43.566;27.820;2023-04-28T04:55:39;99082.09;;;6.23;100.00
9905;BME280;4991;43.566;27.820;2023-04-28T04:58:05;99080.47;;;6.32;100.00
9905;BME280;4991;43.566;27.820;2023-04-28T05:00:30;99083.16;;;6.37;100.00
9905;BME280;4991;43.566;27.820;2023-04-28T05:02:56;99082.13;;;6.43;100.00
9905;BME280;4991;43.566;27.820;2023-04-28T05:05:22;99076.97;;;6.51;100.00
9905;BME280;4991;43.566;27.820;2023-04-28T05:07:47;99082.38;;;6.57;100.00
9905;BME280;4991;43.566;27.820;2023-04-28T05:10:13;99079.66;;;6.67;100.00
9905;BME280;4991;43.566;27.820;2023-04-28T05:12:39;99079.91;;;6.75;100.00
9905;BME280;4991;43.566;27.820;2023-04-28T05:15:05;99083.44;;;6.81;100.00
9905;BME280;4991;43.566;27.820;2023-04-28T05:17:33;99082.91;;;6.84;100.00
9905;BME280;4991;43.566;27.820;2023-04-28T05:19:59;99081.00;;;6.94;100.00
9905;BME280;4991;43.566;27.820;2023-04-28T05:22:24;99075.03;;;6.97;100.00
9905;BME280;4991;43.566;27.820;2023-04-28T05:24:51;99084.47;;;7.10;100.00
9905;BME280;4991;43.566;27.820;2023-04-28T05:27:17;99093.94;;;7.17;100.00
9905;BME280;4991;43.566;27.820;2023-04-28T05:29:43;99085.00;;;7.22;100.00
9905;BME280;4991;43.566;27.820;2023-04-28T05:32:09;99081.22;;;7.23;100.00
9905;BME280;4991;43.566;27.820;2023-04-28T05:34:35;99092.28;;;7.31;100.00
9905;BME280;4991;43.566;27.820;2023-04-28T05:37:00;99093.34;;;7.35;100.00
9905;BME280;4991;43.566;27.820;2023-04-28T05:39:26;99092.78;;;7.43;100.00
9905;BME280;4991;43.566;27.820;2023-04-28T05:41:51;99100.09;;;7.48;100.00
9905;BME280;4991;43.566;27.820;2023-04-28T05:44:17;99106.59;;;7.52;100.00
9905;BME280;4991;43.566;27.820;2023-04-28T05:46:43;99112.81;;;7.57;100.00
9905;BME280;4991;43.566;27.820;2023-04-28T05:49:09;99110.59;;;7.64;100.00
9905;BME280;4991;43.566;27.820;2023-04-28T05:51:35;99112.78;;;7.67;100.00
9905;BME280;4991;43.566;27.820;2023-04-28T05:54:00;99109.19;;;7.77;100.00
9905;BME280;4991;43.566;27.820;2023-04-28T05:56:26;99101.59;;;7.79;100.00
9905;BME280;4991;43.566;27.820;2023-04-28T05:58:52;99112.41;;;7.89;100.00
9905;BME280;4991;43.566;27.820;2023-04-28T06:01:18;99108.03;;;7.93;100.00
9905;BME280;4991;43.566;27.820;2023-04-28T06:03:43;99107.47;;;7.96;100.00
9905;BME280;4991;43.566;27.820;2023-04-28T06:06:10;99112.06;;;8.01;100.00
9905;BME280;4991;43.566;27.820;2023-04-28T06:08:36;99098.94;;;8.18;100.00
9905;BME280;4991;43.566;27.820;2023-04-28T06:11:02;99110.59;;;8.23;100.00
9905;BME280;4991;43.566;27.820;2023-04-28T06:13:27;99103.81;;;8.26;100.00
9905;BME280;4991;43.566;27.820;2023-04-28T06:15:53;99113.75;;;8.40;100.00
9905;BME280;4991;43.566;27.820;2023-04-28T06:18:19;99117.72;;;8.53;100.00
9905;BME280;4991;43.566;27.820;2023-04-28T06:20:45;99109.06;;;8.51;100.00
9905;BME280;4991;43.566;27.820;2023-04-28T06:23:10;99104.16;;;8.53;100.00
9905;BME280;4991;43.566;27.820;2023-04-28T06:25:36;99105.66;;;8.69;100.00
9905;BME280;4991;43.566;27.820;2023-04-28T06:28:02;99112.34;;;8.81;100.00
9905;BME280;4991;43.566;27.820;2023-04-28T06:30:27;99114.78;;;8.83;100.00
9905;BME280;4991;43.566;27.820;2023-04-28T06:32:53;99110.25;;;8.73;100.00
9905;BME280;4991;43.566;27.820;2023-04-28T06:35:22;99109.88;;;8.85;100.00
9905;BME280;4991;43.566;27.820;2023-04-28T06:37:47;99123.47;;;8.85;100.00
9905;BME280;4991;43.566;27.820;2023-04-28T06:40:13;99112.59;;;8.85;100.00
9905;BME280;4991;43.566;27.820;2023-04-28T06:42:39;99115.84;;;8.87;100.00
9905;BME280;4991;43.566;27.820;2023-04-28T06:45:05;99120.88;;;9.03;100.00
9905;BME280;4991;43.566;27.820;2023-04-28T06:47:31;99097.88;;;9.20;100.00
9905;BME280;4991;43.566;27.820;2023-04-28T06:49:57;99105.88;;;9.35;100.00
9905;BME280;4991;43.566;27.820;2023-04-28T06:52:22;99124.38;;;9.33;100.00
9905;BME280;4991;43.566;27.820;2023-04-28T06:54:49;99103.44;;;9.33;100.00
9905;BME280;4991;43.566;27.820;2023-04-28T06:57:16;99121.78;;;9.46;100.00
9905;BME280;4991;43.566;27.820;2023-04-28T06:59:41;99122.81;;;9.50;100.00
9905;BME280;4991;43.566;27.820;2023-04-28T07:02:09;99106.06;;;9.43;100.00
9905;BME280;4991;43.566;27.820;2023-04-28T07:04:35;99103.00;;;9.50;100.00
9905;BME280;4991;43.566;27.820;2023-04-28T07:07:01;99110.50;;;9.58;100.00
9905;BME280;4991;43.566;27.820;2023-04-28T07:09:27;99107.50;;;9.59;100.00
9905;BME280;4991;43.566;27.820;2023-04-28T07:11:52;99101.41;;;9.67;100.00
9905;BME280;4991;43.566;27.820;2023-04-28T07:14:18;99103.88;;;9.87;100.00
9905;BME280;4991;43.566;27.820;2023-04-28T07:16:44;99100.34;;;9.87;100.00
9905;BME280;4991;43.566;27.820;2023-04-28T07:19:09;99104.94;;;9.91;100.00
9905;BME280;4991;43.566;27.820;2023-04-28T07:21:35;99116.69;;;10.05;100.00
9905;BME280;4991;43.566;27.820;2023-04-28T07:24:01;99101.44;;;10.09;100.00
9905;BME280;4991;43.566;27.820;2023-04-28T07:26:26;99097.25;;;10.17;100.00
9905;BME280;4991;43.566;27.820;2023-04-28T07:28:52;99111.78;;;10.07;100.00
9905;BME280;4991;43.566;27.820;2023-04-28T07:31:18;99105.53;;;10.07;100.00
9905;BME280;4991;43.566;27.820;2023-04-28T07:33:43;99090.91;;;10.03;100.00
9905;BME280;4991;43.566;27.820;2023-04-28T07:36:09;99101.94;;;10.11;100.00
9905;BME280;4991;43.566;27.820;2023-04-28T07:38:35;99099.59;;;10.23;100.00
9905;BME280;4991;43.566;27.820;2023-04-28T07:41:02;99096.34;;;10.21;100.00
9905;BME280;4991;43.566;27.820;2023-04-28T07:43:29;99109.69;;;10.23;100.00
9905;BME280;4991;43.566;27.820;2023-04-28T07:45:55;99108.44;;;10.34;100.00
9905;BME280;4991;43.566;27.820;2023-04-28T07:48:20;99106.72;;;10.38;100.00
9905;BME280;4991;43.566;27.820;2023-04-28T07:50:46;99109.97;;;10.40;100.00
9905;BME280;4991;43.566;27.820;2023-04-28T07:53:11;99102.09;;;10.38;100.00
9905;BME280;4991;43.566;27.820;2023-04-28T07:55:37;99095.78;;;10.43;100.00
9905;BME280;4991;43.566;27.820;2023-04-28T07:58:02;99091.22;;;10.57;100.00
9905;BME280;4991;43.566;27.820;2023-04-28T08:00:28;99102.78;;;10.81;100.00
9905;BME280;4991;43.566;27.820;2023-04-28T08:02:54;99102.88;;;10.76;100.00
9905;BME280;4991;43.566;27.820;2023-04-28T08:05:21;99099.41;;;10.89;100.00
9905;BME280;4991;43.566;27.820;2023-04-28T08:07:46;99094.44;;;10.91;100.00
9905;BME280;4991;43.566;27.820;2023-04-28T08:10:12;99097.03;;;11.15;100.00
9905;BME280;4991;43.566;27.820;2023-04-28T08:12:37;99082.63;;;11.28;99.64
9905;BME280;4991;43.566;27.820;2023-04-28T08:15:05;99097.75;;;11.20;100.00
9905;BME280;4991;43.566;27.820;2023-04-28T08:17:31;99096.38;;;11.04;100.00
9905;BME280;4991;43.566;27.820;2023-04-28T08:19:57;99104.00;;;11.07;99.15
9905;BME280;4991;43.566;27.820;2023-04-28T08:22:23;99095.56;;;11.22;99.10
9905;BME280;4991;43.566;27.820;2023-04-28T08:24:48;99108.88;;;11.24;97.12
9905;BME280;4991;43.566;27.820;2023-04-28T08:27:15;99088.84;;;11.15;96.47
9905;BME280;4991;43.566;27.820;2023-04-28T08:29:40;99106.63;;;11.26;99.51
9905;BME280;4991;43.566;27.820;2023-04-28T08:32:06;99072.28;;;11.11;97.08
9905;BME280;4991;43.566;27.820;2023-04-28T08:34:32;99085.16;;;11.38;100.00
9905;BME280;4991;43.566;27.820;2023-04-28T08:36:58;99083.34;;;11.60;100.00
9905;BME280;4991;43.566;27.820;2023-04-28T08:39:24;99082.22;;;11.48;99.50
9905;BME280;4991;43.566;27.820;2023-04-28T08:41:51;99072.34;;;11.38;99.54
9905;BME280;4991;43.566;27.820;2023-04-28T08:44:17;99078.38;;;11.62;100.00
9905;BME280;4991;43.566;27.820;2023-04-28T08:46:44;99080.53;;;11.79;100.00
9905;BME280;4991;43.566;27.820;2023-04-28T08:49:14;99083.34;;;12.01;99.26
9905;BME280;4991;43.566;27.820;2023-04-28T08:51:49;99066.97;;;11.88;96.93
9905;BME280;4991;43.566;27.820;2023-04-28T08:54:16;99060.38;;;12.02;96.17
9905;BME280;4991;43.566;27.820;2023-04-28T08:56:42;99057.53;;;12.07;96.10
9905;BME280;4991;43.566;27.820;2023-04-28T08:59:11;99064.72;;;12.17;94.40
9905;BME280;4991;43.566;27.820;2023-04-28T09:01:38;99070.63;;;11.97;91.20
9905;BME280;4991;43.566;27.820;2023-04-28T09:04:04;99076.50;;;11.77;89.38
9905;BME280;4991;43.566;27.820;2023-04-28T09:06:35;99069.53;;;11.71;90.45
9905;BME280;4991;43.566;27.820;2023-04-28T09:14:27;99055.13;;;12.06;93.96
9905;BME280;4991;43.566;27.820;2023-04-28T09:16:53;99052.38;;;12.06;90.90
9905;BME280;4991;43.566;27.820;2023-04-28T09:19:19;99070.09;;;11.95;91.03
9905;BME280;4991;43.566;27.820;2023-04-28T09:21:53;99049.06;;;12.09;92.04
9905;BME280;4991;43.566;27.820;2023-04-28T09:24:28;99066.78;;;12.33;92.69
9905;BME280;4991;43.566;27.820;2023-04-28T09:26:55;99082.94;;;12.43;86.89
9905;BME280;4991;43.566;27.820;2023-04-28T09:29:22;99040.03;;;12.44;87.65
9905;BME280;4991;43.566;27.820;2023-04-28T09:31:47;99056.44;;;12.88;88.23
9905;BME280;4991;43.566;27.820;2023-04-28T09:34:13;99046.84;;;13.21;85.06
9905;BME280;4991;43.566;27.820;2023-04-28T09:36:39;99050.75;;;13.93;80.58
9905;BME280;4991;43.566;27.820;2023-04-28T09:39:06;99073.41;;;13.68;76.74
9905;BME280;4991;43.566;27.820;2023-04-28T09:44:15;99050.75;;;16.38;72.22
9905;BME280;4991;43.566;27.820;2023-04-28T09:46:44;99062.63;;;15.42;68.32
9905;BME280;4991;43.566;27.820;2023-04-28T09:49:11;99052.94;;;14.56;69.94
9905;BME280;4991;43.566;27.820;2023-04-28T09:51:37;99045.78;;;14.98;67.80
9905;BME280;4991;43.566;27.820;2023-04-28T09:54:03;99039.22;;;14.56;69.87
9905;BME280;4991;43.566;27.820;2023-04-28T09:56:31;99038.28;;;14.44;70.20
9905;BME280;4991;43.566;27.820;2023-04-28T09:58:58;99038.09;;;14.32;70.08
9905;BME280;4991;43.566;27.820;2023-04-28T10:01:35;99047.75;;;14.80;67.54
9905;BME280;4991;43.566;27.820;2023-04-28T10:04:04;99025.22;;;14.32;68.99
9905;BME280;4991;43.566;27.820;2023-04-28T10:06:33;99046.47;;;14.69;64.56
9905;BME280;4991;43.566;27.820;2023-04-28T10:09:01;99050.63;;;14.92;66.26
9905;BME280;4991;43.566;27.820;2023-04-28T10:11:27;99040.56;;;15.68;60.83
9905;BME280;4991;43.566;27.820;2023-04-28T10:13:53;99053.41;;;16.05;60.39
9905;BME280;4991;43.566;27.820;2023-04-28T10:16:20;99030.22;;;16.35;58.71
9905;BME280;4991;43.566;27.820;2023-04-28T10:18:46;99034.03;;;16.02;60.99
9905;BME280;4991;43.566;27.820;2023-04-28T10:21:16;99048.84;;;15.80;59.96
9905;BME280;4991;43.566;27.820;2023-04-28T10:29:15;99030.72;;;17.35;56.85
9905;BME280;4991;43.566;27.820;2023-04-28T10:34:41;99034.84;;;16.85;58.03
9905;BME280;4991;43.566;27.820;2023-04-28T10:37:06;99062.34;;;15.73;58.09
9905;BME280;4991;43.566;27.820;2023-04-28T10:39:32;99028.75;;;16.17;56.31
9905;BME280;4991;43.566;27.820;2023-04-28T10:41:58;99042.31;;;16.43;54.62
9905;BME280;4991;43.566;27.820;2023-04-28T10:47:06;99033.41;;;17.80;53.89
9905;BME280;4991;43.566;27.820;2023-04-28T11:00:41;99017.25;;;18.85;54.05
9905;BME280;4991;43.566;27.820;2023-04-28T11:03:07;99027.00;;;18.95;50.93
9905;BME280;4991;43.566;27.820;2023-04-28T11:05:33;99022.09;;;18.09;50.96
9905;BME280;4991;43.566;27.820;2023-04-28T11:13:34;99025.75;;;18.25;50.88
9905;BME280;4991;43.566;27.820;2023-04-28T11:16:03;99011.28;;;17.20;53.49
9905;BME280;4991;43.566;27.820;2023-04-28T11:21:17;99031.72;;;15.54;55.78
9905;BME280;4991;43.566;27.820;2023-04-28T11:23:44;99022.88;;;17.13;52.81
9905;BME280;4991;43.566;27.820;2023-04-28T11:26:10;99017.19;;;17.42;51.39
9905;BME280;4991;43.566;27.820;2023-04-28T11:28:55;99020.31;;;17.77;52.00
9905;BME280;4991;43.566;27.820;2023-04-28T11:31:23;99008.94;;;18.97;49.91
9905;BME280;4991;43.566;27.820;2023-04-28T11:33:52;99025.94;;;17.56;50.79
9905;BME280;4991;43.566;27.820;2023-04-28T11:36:32;99022.25;;;16.42;51.89
9905;BME280;4991;43.566;27.820;2023-04-28T11:39:00;99026.34;;;16.57;51.65
9905;BME280;4991;43.566;27.820;2023-04-28T11:41:26;99014.50;;;18.18;51.23
9905;BME280;4991;43.566;27.820;2023-04-28T11:43:52;99017.88;;;19.06;48.92
9905;BME280;4991;43.566;27.820;2023-04-28T11:46:20;99004.06;;;19.06;49.98
9905;BME280;4991;43.566;27.820;2023-04-28T11:48:46;99018.91;;;16.90;52.93
9905;BME280;4991;43.566;27.820;2023-04-28T11:51:32;99030.97;;;16.24;55.00
9905;BME280;4991;43.566;27.820;2023-04-28T11:53:58;99027.03;;;17.43;52.45
9905;BME280;4991;43.566;27.820;2023-04-28T11:56:25;99024.53;;;19.05;50.34
9905;BME280;4991;43.566;27.820;2023-04-28T11:59:05;99021.94;;;18.69;48.99
9905;BME280;4991;43.566;27.820;2023-04-28T12:01:33;99022.09;;;18.88;48.53
9905;BME280;4991;43.566;27.820;2023-04-28T12:04:02;99034.53;;;18.55;48.53
9905;BME280;4991;43.566;27.820;2023-04-28T12:06:28;99019.06;;;18.38;49.39
9905;BME280;4991;43.566;27.820;2023-04-28T12:08:54;99024.28;;;18.16;48.18
9905;BME280;4991;43.566;27.820;2023-04-28T12:11:20;99015.22;;;18.03;46.79
9905;BME280;4991;43.566;27.820;2023-04-28T12:14:06;99019.31;;;18.21;47.69
9905;BME280;4991;43.566;27.820;2023-04-28T12:16:39;99019.72;;;17.59;47.35
9905;BME280;4991;43.566;27.820;2023-04-28T12:19:09;99018.81;;;17.91;46.32
9905;BME280;4991;43.566;27.820;2023-04-28T12:21:36;99021.34;;;18.48;45.94
9905;BME280;4991;43.566;27.820;2023-04-28T12:24:20;99013.69;;;19.28;45.05
9905;BME280;4991;43.566;27.820;2023-04-28T12:26:47;99022.34;;;19.73;45.31
9905;BME280;4991;43.566;27.820;2023-04-28T12:29:37;99008.03;;;18.50;46.22
9905;BME280;4991;43.566;27.820;2023-04-28T12:32:09;99006.44;;;18.92;46.43
9905;BME280;4991;43.566;27.820;2023-04-28T12:34:36;98992.50;;;17.34;46.63
9905;BME280;4991;43.566;27.820;2023-04-28T12:37:02;98996.53;;;16.26;49.07
9905;BME280;4991;43.566;27.820;2023-04-28T12:39:31;99000.22;;;15.60;51.32
9905;BME280;4991;43.566;27.820;2023-04-28T12:41:57;99012.59;;;16.16;51.02
9905;BME280;4991;43.566;27.820;2023-04-28T12:44:25;99002.78;;;18.21;49.96
9905;BME280;4991;43.566;27.820;2023-04-28T12:46:52;98983.53;;;18.92;47.51
9905;BME280;4991;43.566;27.820;2023-04-28T12:49:19;98985.31;;;19.43;45.63
9905;BME280;4991;43.566;27.820;2023-04-28T12:51:46;98989.88;;;19.23;44.99
9905;BME280;4991;43.566;27.820;2023-04-28T12:54:11;98983.34;;;17.78;47.40
9905;BME280;4991;43.566;27.820;2023-04-28T12:56:37;98990.84;;;16.97;48.73
9905;BME280;4991;43.566;27.820;2023-04-28T12:59:02;98983.19;;;17.02;49.59
9905;BME280;4991;43.566;27.820;2023-04-28T13:01:28;98988.94;;;16.64;49.31
9905;BME280;4991;43.566;27.820;2023-04-28T13:03:54;98979.16;;;17.00;49.58
9905;BME280;4991;43.566;27.820;2023-04-28T13:06:20;98974.34;;;16.85;50.31
9905;BME280;4991;43.566;27.820;2023-04-28T13:08:45;98969.09;;;17.28;50.41
9905;BME280;4991;43.566;27.820;2023-04-28T13:11:11;98983.78;;;17.32;51.59
9905;BME280;4991;43.566;27.820;2023-04-28T13:13:37;98984.84;;;17.75;49.53
9905;BME280;4991;43.566;27.820;2023-04-28T13:16:03;98986.84;;;16.61;50.00
9905;BME280;4991;43.566;27.820;2023-04-28T13:18:30;98978.44;;;17.47;50.92
9905;BME280;4991;43.566;27.820;2023-04-28T13:20:56;98980.19;;;18.16;48.82
9905;BME280;4991;43.566;27.820;2023-04-28T13:23:22;98975.19;;;18.88;49.09
9905;BME280;4991;43.566;27.820;2023-04-28T13:25:48;98977.16;;;17.69;50.38
9905;BME280;4991;43.566;27.820;2023-04-28T13:28:13;98978.94;;;16.93;51.24
9905;BME280;4991;43.566;27.820;2023-04-28T13:30:40;98972.44;;;17.33;50.47
9905;BME280;4991;43.566;27.820;2023-04-28T13:33:06;98965.78;;;17.22;51.19
9905;BME280;4991;43.566;27.820;2023-04-28T13:35:31;98986.53;;;16.42;52.23
9905;BME280;4991;43.566;27.820;2023-04-28T13:37:57;98974.41;;;16.76;53.31
9905;BME280;4991;43.566;27.820;2023-04-28T13:40:29;98965.81;;;16.90;52.42
9905;BME280;4991;43.566;27.820;2023-04-28T13:42:55;98986.47;;;16.30;53.54
9905;BME280;4991;43.566;27.820;2023-04-28T13:45:21;98968.88;;;15.61;53.83